createdAt,value
2018-08-28T00:02:22.511Z,17.52
2018-08-28T00:04:51.489Z,17.63
2018-08-28T00:07:20.573Z,17.57
2018-08-28T00:09:49.510Z,16.94
2018-08-28T00:12:18.531Z,16.68
2018-08-28T00:14:47.473Z,17.08
2018-08-28T00:17:16.570Z,16.64
2018-08-28T00:19:45.721Z,16.99
2018-08-28T00:22:14.822Z,16.85
2018-08-28T00:24:43.788Z,16.94
2018-08-28T00:27:12.778Z,16.40
2018-08-28T00:29:41.858Z,16.79
2018-08-28T00:32:10.860Z,16.84
2018-08-28T00:34:39.847Z,16.79
2018-08-28T00:37:08.829Z,16.75
2018-08-28T00:39:37.906Z,16.71
2018-08-28T00:42:07.014Z,16.67
2018-08-28T00:44:36.030Z,16.53
2018-08-28T00:47:05.196Z,16.56
2018-08-28T00:49:34.176Z,16.20
2018-08-28T00:52:03.175Z,16.50
2018-08-28T00:54:32.109Z,16.50
2018-08-28T00:57:01.134Z,16.45
2018-08-28T00:59:30.222Z,16.41
2018-08-28T01:01:59.281Z,16.24
2018-08-28T01:04:28.341Z,16.26
2018-08-28T01:06:57.326Z,16.18
2018-08-28T01:09:26.282Z,16.45
2018-08-28T01:11:55.305Z,16.24
2018-08-28T01:14:24.223Z,16.30
2018-08-28T01:16:53.339Z,16.11
2018-08-28T01:19:22.301Z,16.25
2018-08-28T01:21:51.412Z,16.23
2018-08-28T01:24:20.376Z,16.27
2018-08-28T01:26:49.437Z,16.28
2018-08-28T01:29:18.342Z,16.11
2018-08-28T01:31:47.300Z,16.21
2018-08-28T01:34:16.217Z,15.86
2018-08-28T01:36:45.227Z,16.09
2018-08-28T01:39:14.163Z,15.92
2018-08-28T01:41:43.126Z,15.93
2018-08-28T01:44:12.077Z,15.84
2018-08-28T01:46:41.178Z,15.53
2018-08-28T01:49:10.110Z,15.82
2018-08-28T01:51:39.082Z,15.61
2018-08-28T01:54:08.017Z,15.45
2018-08-28T01:56:37.018Z,15.65
2018-08-28T01:59:05.915Z,15.51
2018-08-28T02:01:34.909Z,15.66
2018-08-28T02:04:03.915Z,15.81
2018-08-28T02:06:32.933Z,15.70
2018-08-28T02:09:01.909Z,15.65
2018-08-28T02:11:30.936Z,15.54
2018-08-28T02:13:59.833Z,15.74
2018-08-28T02:16:28.798Z,15.64
2018-08-28T02:18:57.863Z,15.74
2018-08-28T02:21:26.850Z,15.52
2018-08-28T02:23:55.859Z,15.69
2018-08-28T02:26:25.005Z,15.64
2018-08-28T02:28:54.010Z,15.71
2018-08-28T02:31:22.938Z,15.81
2018-08-28T02:33:51.990Z,15.91
2018-08-28T02:36:21.022Z,15.72
2018-08-28T02:38:50.041Z,15.87
2018-08-28T02:41:19.031Z,16.05
2018-08-28T02:43:48.033Z,16.11
2018-08-28T02:46:17.025Z,16.20
2018-08-28T02:48:46.029Z,16.05
2018-08-28T02:51:15.039Z,16.11
2018-08-28T02:53:44.252Z,16.22
2018-08-28T02:56:19.433Z,16.11
2018-08-28T02:58:48.473Z,15.97
2018-08-28T03:01:17.476Z,16.10
2018-08-28T03:03:46.466Z,15.84
2018-08-28T03:06:15.834Z,15.81
2018-08-28T03:08:44.845Z,15.49
2018-08-28T03:11:13.951Z,15.61
2018-08-28T03:13:42.958Z,15.88
2018-08-28T03:16:11.974Z,15.87
2018-08-28T03:18:40.966Z,15.92
2018-08-28T03:21:10.378Z,15.73
2018-08-28T03:23:40.130Z,15.83
2018-08-28T03:26:09.498Z,15.56
2018-08-28T03:28:38.981Z,15.58
2018-08-28T03:31:08.451Z,15.59
2018-08-28T03:33:37.451Z,15.62
2018-08-28T03:36:07.076Z,15.46
2018-08-28T03:38:36.513Z,15.42
2018-08-28T03:41:05.532Z,15.08
2018-08-28T03:43:34.522Z,15.21
2018-08-28T03:46:03.461Z,15.36
2018-08-28T03:48:32.670Z,15.38
2018-08-28T03:51:01.897Z,15.46
2018-08-28T03:53:31.194Z,15.51
2018-08-28T03:56:00.141Z,15.56
2018-08-28T03:58:29.090Z,15.39
2018-08-28T04:00:58.134Z,15.44
2018-08-28T04:03:27.109Z,15.45
2018-08-28T04:05:56.182Z,15.31
2018-08-28T04:08:25.345Z,15.30
2018-08-28T04:10:54.533Z,15.39
2018-08-28T04:13:23.659Z,15.20
2018-08-28T04:15:52.565Z,15.20
2018-08-28T04:18:21.821Z,15.13
2018-08-28T04:20:51.240Z,15.01
2018-08-28T04:23:20.177Z,15.04
2018-08-28T04:25:49.190Z,15.08
2018-08-28T04:28:18.205Z,15.06
2018-08-28T04:30:47.132Z,15.07
2018-08-28T04:33:16.165Z,14.95
2018-08-28T04:35:45.203Z,15.03
2018-08-28T04:38:14.486Z,15.03
2018-08-28T04:40:43.756Z,15.05
2018-08-28T04:43:12.957Z,15.09
2018-08-28T04:45:42.120Z,14.99
2018-08-28T04:48:11.194Z,15.08
2018-08-28T04:50:40.196Z,15.10
2018-08-28T04:53:09.369Z,15.01
2018-08-28T04:55:38.793Z,15.02
2018-08-28T04:58:07.937Z,15.16
2018-08-28T05:00:37.375Z,15.13
2018-08-28T05:03:06.453Z,15.18
2018-08-28T05:05:35.389Z,15.29
2018-08-28T05:08:04.340Z,15.22
2018-08-28T05:10:33.285Z,15.26
2018-08-28T05:13:02.211Z,15.22
2018-08-28T05:15:31.162Z,15.24
2018-08-28T05:18:00.326Z,15.25
2018-08-28T05:20:29.623Z,15.27
2018-08-28T05:22:58.947Z,15.36
2018-08-28T05:25:27.950Z,15.42
2018-08-28T05:27:56.978Z,14.91
2018-08-28T05:30:26.125Z,15.14
2018-08-28T05:32:55.354Z,15.25
2018-08-28T05:35:24.317Z,15.26
2018-08-28T05:37:53.408Z,15.60
2018-08-28T05:40:22.462Z,15.64
2018-08-28T05:42:51.503Z,14.83
2018-08-28T05:45:20.570Z,14.87
2018-08-28T05:47:50.028Z,14.61
2018-08-28T05:50:19.422Z,14.36
2018-08-28T05:52:48.881Z,14.58
2018-08-28T05:55:17.881Z,14.54
2018-08-28T05:57:49.707Z,14.61
2018-08-28T06:00:19.161Z,14.82
2018-08-28T06:02:48.451Z,14.57
2018-08-28T06:05:17.582Z,14.38
2018-08-28T06:07:46.821Z,14.45
2018-08-28T06:10:16.254Z,14.29
2018-08-28T06:12:45.841Z,14.59
2018-08-28T06:15:15.185Z,14.65
2018-08-28T06:17:44.148Z,14.95
2018-08-28T06:20:13.133Z,15.25
2018-08-28T06:22:42.450Z,15.48
2018-08-28T06:25:11.680Z,15.68
2018-08-28T06:27:40.847Z,16.18
2018-08-28T06:30:10.130Z,16.15
2018-08-28T06:32:39.317Z,16.26
2018-08-28T06:35:08.316Z,15.90
2018-08-28T06:37:37.328Z,16.21
2018-08-28T06:40:06.286Z,16.00
2018-08-28T06:42:35.322Z,15.66
2018-08-28T06:45:04.662Z,15.74
2018-08-28T06:47:33.765Z,15.72
2018-08-28T06:50:03.129Z,15.97
2018-08-28T06:52:32.419Z,16.06
2018-08-28T06:55:01.758Z,16.17
2018-08-28T06:57:31.185Z,16.17
2018-08-28T07:00:00.522Z,16.54
2018-08-28T07:02:29.899Z,16.26
2018-08-28T07:04:59.125Z,16.44
2018-08-28T07:07:28.222Z,16.60
2018-08-28T07:09:57.518Z,16.95
2018-08-28T07:12:27.134Z,16.51
2018-08-28T07:14:56.363Z,16.40
2018-08-28T07:17:26.256Z,16.99
2018-08-28T07:19:56.593Z,16.51
2018-08-28T07:22:27.089Z,16.88
2018-08-28T07:24:57.551Z,16.66
2018-08-28T07:27:27.631Z,17.11
2018-08-28T07:29:57.704Z,17.70
2018-08-28T07:32:27.665Z,17.66
2018-08-28T07:34:58.120Z,17.91
2018-08-28T07:37:27.826Z,18.69
2018-08-28T07:39:58.239Z,18.70
2018-08-28T07:42:27.505Z,18.87
2018-08-28T07:44:57.824Z,18.73
2018-08-28T07:47:27.310Z,18.40
2018-08-28T07:49:56.244Z,18.27
2018-08-28T07:52:25.214Z,18.44
2018-08-28T07:54:54.152Z,18.88
2018-08-28T07:57:23.441Z,19.12
2018-08-28T07:59:53.629Z,18.59
2018-08-28T08:02:24.177Z,19.28
2018-08-28T08:04:53.933Z,19.82
2018-08-28T08:07:25.761Z,19.80
2018-08-28T08:09:55.301Z,19.65
2018-08-28T08:12:25.689Z,19.89
2018-08-28T08:14:56.197Z,20.64
2018-08-28T08:17:26.182Z,20.66
2018-08-28T08:19:56.270Z,21.07
2018-08-28T08:22:26.594Z,20.80
2018-08-28T08:24:55.957Z,21.67
2018-08-28T08:27:24.973Z,21.43
2018-08-28T08:29:54.581Z,21.29
2018-08-28T08:32:24.273Z,22.12
2018-08-28T08:34:53.909Z,22.25
2018-08-28T08:37:24.358Z,22.50
2018-08-28T08:39:54.137Z,22.59
2018-08-28T08:42:24.001Z,23.36
2018-08-28T08:44:54.153Z,23.03
2018-08-28T08:47:23.443Z,22.45
2018-08-28T08:49:52.390Z,22.12
2018-08-28T08:52:21.360Z,23.27
2018-08-28T08:54:50.600Z,22.55
2018-08-28T08:57:20.755Z,23.49
2018-08-28T08:59:50.541Z,24.42
2018-08-28T09:02:20.717Z,23.92
2018-08-28T09:04:50.636Z,23.78
2018-08-28T09:07:21.009Z,25.07
2018-08-28T09:09:51.275Z,22.72
2018-08-28T09:12:20.249Z,23.39
2018-08-28T09:14:49.219Z,23.44
2018-08-28T09:17:18.477Z,23.92
2018-08-28T09:19:47.466Z,23.22
2018-08-28T09:22:17.329Z,24.40
2018-08-28T09:24:47.230Z,23.56
2018-08-28T09:27:16.936Z,24.22
2018-08-28T09:29:46.668Z,24.84
2018-08-28T09:32:16.349Z,24.89
2018-08-28T09:34:45.982Z,24.30
2018-08-28T09:37:16.131Z,23.27
2018-08-28T09:39:45.726Z,23.68
2018-08-28T09:42:14.828Z,23.30
2018-08-28T09:44:43.837Z,23.66
2018-08-28T09:47:12.826Z,22.79
2018-08-28T09:49:41.780Z,24.96
2018-08-28T09:52:11.595Z,25.80
2018-08-28T09:54:41.246Z,24.48
2018-08-28T09:57:10.962Z,24.82
2018-08-28T09:59:40.944Z,24.49
2018-08-28T10:02:11.118Z,23.74
2018-08-28T10:04:40.824Z,25.03
2018-08-28T10:07:11.118Z,24.35
2018-08-28T10:09:41.183Z,25.01
2018-08-28T10:12:10.257Z,24.36
2018-08-28T10:14:39.288Z,23.61
2018-08-28T10:17:08.762Z,23.55
2018-08-28T10:19:38.009Z,24.10
2018-08-28T10:22:08.428Z,23.30
2018-08-28T10:24:38.044Z,23.69
2018-08-28T10:27:07.748Z,23.42
2018-08-28T10:29:37.221Z,24.38
2018-08-28T10:32:06.574Z,25.30
2018-08-28T10:34:35.647Z,25.00
2018-08-28T10:37:06.042Z,24.83
2018-08-28T10:39:35.721Z,25.00
2018-08-28T10:42:05.192Z,26.47
2018-08-28T10:44:34.920Z,25.85
2018-08-28T10:47:04.577Z,25.86
2018-08-28T10:49:34.422Z,23.64
2018-08-28T10:52:04.837Z,24.13
2018-08-28T10:54:34.799Z,25.24
2018-08-28T10:57:04.802Z,26.83
2018-08-28T10:59:35.048Z,26.04
2018-08-28T11:02:05.184Z,24.82
2018-08-28T11:04:35.161Z,24.66
2018-08-28T11:07:04.822Z,24.73
2018-08-28T11:09:34.553Z,24.97
2018-08-28T11:12:04.165Z,24.19
2018-08-28T11:14:33.194Z,24.32
2018-08-28T11:17:02.098Z,25.33
2018-08-28T11:19:31.157Z,26.20
2018-08-28T11:22:00.131Z,25.60
2018-08-28T11:24:29.998Z,27.17
2018-08-28T11:26:59.888Z,27.54
2018-08-28T11:29:29.524Z,26.04
2018-08-28T11:31:59.189Z,25.92
2018-08-28T11:34:28.897Z,25.63
2018-08-28T11:36:58.532Z,25.41
2018-08-28T11:39:28.155Z,26.14
2018-08-28T11:41:57.126Z,26.49
2018-08-28T11:44:26.333Z,28.21
2018-08-28T11:46:55.399Z,25.89
2018-08-28T11:49:24.403Z,25.18
2018-08-28T11:51:54.186Z,26.00
2018-08-28T11:54:24.250Z,27.81
2018-08-28T11:56:54.227Z,27.75
2018-08-28T11:59:24.535Z,27.73
2018-08-28T12:01:54.656Z,25.95
2018-08-28T12:04:25.419Z,26.65
2018-08-28T12:06:55.256Z,25.83
2018-08-28T12:09:25.557Z,25.58
2018-08-28T12:11:54.579Z,26.22
2018-08-28T12:14:23.837Z,27.78
2018-08-28T12:16:53.201Z,28.74
2018-08-28T12:19:22.621Z,29.57
2018-08-28T12:21:52.725Z,28.15
2018-08-28T12:24:23.896Z,25.88
2018-08-28T12:26:53.941Z,28.41
2018-08-28T12:29:24.109Z,28.39
2018-08-28T12:31:54.356Z,29.26
2018-08-28T12:34:24.429Z,29.17
2018-08-28T12:36:54.103Z,26.56
2018-08-28T12:39:23.363Z,26.12
2018-08-28T12:41:52.368Z,26.33
2018-08-28T12:44:21.457Z,28.65
2018-08-28T12:46:50.415Z,29.15
2018-08-28T12:49:20.594Z,28.87
2018-08-28T12:51:50.694Z,29.36
2018-08-28T12:54:20.953Z,29.74
2018-08-28T12:56:50.715Z,29.41
2018-08-28T12:59:20.713Z,29.06
2018-08-28T13:01:50.764Z,25.62
2018-08-28T13:04:20.933Z,28.38
2018-08-28T13:06:50.609Z,26.55
2018-08-28T13:09:19.997Z,26.18
2018-08-28T13:11:49.400Z,26.51
2018-08-28T13:14:18.466Z,26.31
2018-08-28T13:16:47.449Z,27.41
2018-08-28T13:19:17.171Z,27.62
2018-08-28T13:21:46.838Z,28.60
2018-08-28T13:24:16.809Z,28.67
2018-08-28T13:26:47.312Z,30.54
2018-08-28T13:29:17.633Z,30.76
2018-08-28T13:31:47.730Z,27.76
2018-08-28T13:34:17.773Z,27.09
2018-08-28T13:36:46.741Z,30.08
2018-08-28T13:39:15.980Z,30.43
2018-08-28T13:41:45.094Z,30.45
2018-08-28T13:44:14.171Z,31.12
2018-08-28T13:46:44.208Z,31.02
2018-08-28T13:49:13.861Z,26.79
2018-08-28T13:51:43.880Z,26.71
2018-08-28T13:54:14.137Z,28.13
2018-08-28T13:56:43.968Z,28.11
2018-08-28T13:59:14.175Z,26.49
2018-08-28T14:01:43.844Z,26.77
2018-08-28T14:04:12.836Z,29.43
2018-08-28T14:06:42.102Z,29.36
2018-08-28T14:09:11.274Z,30.32
2018-08-28T14:11:40.214Z,28.92
2018-08-28T14:14:10.013Z,28.59
2018-08-28T14:16:39.654Z,27.64
2018-08-28T14:19:09.653Z,31.41
2018-08-28T14:21:39.759Z,29.87
2018-08-28T14:24:09.944Z,28.92
2018-08-28T14:26:40.275Z,29.69
2018-08-28T14:29:10.718Z,29.57
2018-08-28T14:31:40.762Z,29.51
2018-08-28T14:34:10.131Z,28.42
2018-08-28T14:36:40.078Z,27.13
2018-08-28T14:39:10.111Z,26.57
2018-08-28T14:41:40.105Z,26.43
2018-08-28T14:44:09.978Z,27.08
2018-08-28T14:46:39.544Z,26.65
2018-08-28T14:49:09.254Z,26.34
2018-08-28T14:51:38.990Z,29.53
2018-08-28T14:54:07.961Z,29.37
2018-08-28T14:56:37.091Z,26.41
2018-08-28T14:59:07.133Z,26.83
2018-08-28T15:01:36.118Z,27.01
2018-08-28T15:04:06.189Z,26.95
2018-08-28T15:06:36.431Z,28.05
2018-08-28T15:09:07.651Z,27.79
2018-08-28T15:11:37.429Z,27.61
2018-08-28T15:14:07.053Z,27.06
2018-08-28T15:16:36.895Z,26.79
2018-08-28T15:19:06.715Z,27.06
2018-08-28T15:21:36.315Z,28.70
2018-08-28T15:24:05.254Z,27.31
2018-08-28T15:26:34.215Z,27.51
2018-08-28T15:29:03.189Z,26.64
2018-08-28T15:31:32.176Z,26.36
2018-08-28T15:34:01.800Z,26.67
2018-08-28T15:36:31.507Z,27.40
2018-08-28T15:39:01.156Z,27.48
2018-08-28T15:41:30.584Z,27.94
2018-08-28T15:43:59.952Z,26.68
2018-08-28T15:46:29.309Z,26.47
2018-08-28T15:48:58.337Z,26.12
2018-08-28T15:51:27.476Z,26.45
2018-08-28T15:53:56.309Z,26.91
2018-08-28T15:56:25.289Z,26.77
2018-08-28T15:58:54.330Z,26.99
2018-08-28T16:01:24.138Z,27.25
2018-08-28T16:03:53.078Z,25.98
2018-08-28T16:06:22.171Z,26.22
2018-08-28T16:08:51.413Z,26.45
2018-08-28T16:11:20.579Z,27.29
2018-08-28T16:13:49.556Z,26.81
2018-08-28T16:16:18.534Z,26.91
2018-08-28T16:18:47.735Z,26.43
2018-08-28T16:21:16.770Z,26.21
2018-08-28T16:23:47.466Z,26.09
2018-08-28T16:26:16.450Z,26.23
2018-08-28T16:28:45.475Z,26.23
2018-08-28T16:31:14.458Z,25.91
2018-08-28T16:33:43.562Z,26.03
2018-08-28T16:36:13.253Z,25.73
2018-08-28T16:38:42.181Z,26.44
2018-08-28T16:41:11.251Z,25.95
2018-08-28T16:43:40.122Z,26.03
2018-08-28T16:46:09.270Z,26.32
2018-08-28T16:48:38.250Z,26.87
2018-08-28T16:51:07.242Z,27.26
2018-08-28T16:53:36.511Z,27.08
2018-08-28T16:56:05.912Z,26.75
2018-08-28T16:58:35.446Z,27.10
2018-08-28T17:01:04.490Z,27.11
2018-08-28T17:03:33.408Z,27.25
2018-08-28T17:06:03.366Z,27.03
2018-08-28T17:08:32.605Z,26.89
2018-08-28T17:11:01.868Z,27.00
2018-08-28T17:13:30.894Z,26.78
2018-08-28T17:16:00.401Z,26.61
2018-08-28T17:18:29.530Z,26.20
2018-08-28T17:20:58.835Z,25.86
2018-08-28T17:23:27.793Z,25.79
2018-08-28T17:25:56.805Z,25.58
2018-08-28T17:28:25.874Z,25.44
2018-08-28T17:30:54.898Z,25.30
2018-08-28T17:33:24.195Z,25.18
2018-08-28T17:35:53.304Z,25.21
2018-08-28T17:38:22.233Z,24.99
2018-08-28T17:40:51.271Z,24.94
2018-08-28T17:43:20.182Z,24.79
2018-08-28T17:45:49.154Z,24.94
2018-08-28T17:48:18.134Z,25.44
2018-08-28T17:50:47.173Z,25.01
2018-08-28T17:53:16.259Z,24.75
2018-08-28T17:55:45.332Z,24.68
2018-08-28T17:58:14.364Z,24.60
2018-08-28T18:00:43.453Z,24.81
2018-08-28T18:03:12.464Z,24.80
2018-08-28T18:05:41.418Z,24.39
2018-08-28T18:08:10.425Z,24.47
2018-08-28T18:10:39.468Z,24.45
2018-08-28T18:13:09.062Z,24.41
2018-08-28T18:15:38.217Z,24.35
2018-08-28T18:18:07.281Z,24.43
2018-08-28T18:20:36.166Z,24.38
2018-08-28T18:23:05.191Z,24.26
2018-08-28T18:25:34.174Z,23.81
2018-08-28T18:28:03.203Z,23.82
2018-08-28T18:30:32.112Z,24.15
2018-08-28T18:33:01.058Z,24.10
2018-08-28T18:35:30.006Z,24.12
2018-08-28T18:37:59.296Z,24.04
2018-08-28T18:40:28.194Z,23.83
2018-08-28T18:42:57.226Z,23.93
2018-08-28T18:45:26.196Z,23.47
2018-08-28T18:47:55.224Z,23.47
2018-08-28T18:50:24.303Z,23.66
2018-08-28T18:52:53.239Z,23.41
2018-08-28T18:55:22.270Z,22.82
2018-08-28T18:57:51.284Z,23.01
2018-08-28T19:00:20.456Z,23.54
2018-08-28T19:02:49.753Z,23.80
2018-08-28T19:05:18.843Z,23.78
2018-08-28T19:07:47.915Z,24.02
2018-08-28T19:10:17.115Z,23.70
2018-08-28T19:12:46.380Z,23.56
2018-08-28T19:15:15.371Z,23.44
2018-08-28T19:17:44.422Z,23.43
2018-08-28T19:20:13.826Z,23.55
2018-08-28T19:22:42.931Z,23.51
2018-08-28T19:25:12.194Z,23.69
2018-08-28T19:27:41.269Z,23.59
2018-08-28T19:30:10.261Z,23.53
2018-08-28T19:32:39.290Z,23.39
2018-08-28T19:35:08.208Z,23.09
2018-08-28T19:37:37.180Z,22.74
2018-08-28T19:40:06.954Z,22.39
2018-08-28T19:42:35.953Z,22.80
2018-08-28T19:45:04.942Z,22.81
2018-08-28T19:47:34.430Z,22.87
2018-08-28T19:50:03.440Z,22.44
2018-08-28T19:52:32.413Z,22.49
2018-08-28T19:55:01.377Z,22.81
2018-08-28T19:57:31.177Z,22.92
2018-08-28T20:00:00.235Z,22.76
2018-08-28T20:02:29.345Z,22.76
2018-08-28T20:04:58.442Z,22.55
2018-08-28T20:07:27.575Z,22.66
2018-08-28T20:09:56.559Z,22.47
2018-08-28T20:12:25.867Z,22.57
2018-08-28T20:14:54.872Z,22.58
2018-08-28T20:17:23.927Z,22.44
2018-08-28T20:19:53.329Z,22.47
2018-08-28T20:22:22.300Z,22.12
2018-08-28T20:24:51.335Z,21.83
2018-08-28T20:27:20.359Z,22.13
2018-08-28T20:29:49.351Z,22.24
2018-08-28T20:32:18.364Z,22.14
2018-08-28T20:34:47.330Z,22.07
2018-08-28T20:37:17.001Z,21.72
2018-08-28T20:39:45.974Z,21.96
2018-08-28T20:42:15.047Z,21.98
2018-08-28T20:44:44.002Z,21.47
2018-08-28T20:47:12.991Z,21.67
2018-08-28T20:49:42.078Z,21.70
2018-08-28T20:52:10.985Z,21.67
2018-08-28T20:54:39.994Z,21.52
2018-08-28T20:57:08.957Z,21.58
2018-08-28T20:59:37.957Z,21.77
2018-08-28T21:02:06.968Z,21.58
2018-08-28T21:04:35.999Z,21.41
2018-08-28T21:07:05.068Z,21.47
2018-08-28T21:09:34.049Z,21.39
2018-08-28T21:12:03.007Z,21.44
2018-08-28T21:14:32.114Z,21.29
2018-08-28T21:17:01.094Z,21.21
2018-08-28T21:19:30.170Z,21.21
2018-08-28T21:21:59.176Z,21.07
2018-08-28T21:24:28.480Z,20.95
2018-08-28T21:26:57.459Z,20.79
2018-08-28T21:29:26.624Z,20.98
2018-08-28T21:31:55.515Z,21.12
2018-08-28T21:34:24.653Z,20.76
2018-08-28T21:36:53.833Z,20.68
2018-08-28T21:39:22.961Z,20.59
2018-08-28T21:41:51.928Z,20.44
2018-08-28T21:44:20.895Z,20.35
2018-08-28T21:46:49.825Z,19.98
2018-08-28T21:49:18.822Z,20.39
2018-08-28T21:51:47.837Z,20.59
2018-08-28T21:54:16.848Z,20.43
2018-08-28T21:56:45.806Z,20.61
2018-08-28T21:59:14.787Z,20.34
2018-08-28T22:01:43.854Z,20.21
2018-08-28T22:04:12.949Z,20.43
2018-08-28T22:06:47.212Z,20.48
2018-08-28T22:09:16.347Z,20.00
2018-08-28T22:11:45.711Z,20.29
2018-08-28T22:14:14.762Z,20.29
2018-08-28T22:16:43.777Z,20.05
2018-08-28T22:19:12.928Z,19.93
2018-08-28T22:21:41.846Z,20.04
2018-08-28T22:24:10.813Z,19.95
2018-08-28T22:26:39.834Z,19.85
2018-08-28T22:29:09.024Z,20.20
2018-08-28T22:31:38.043Z,19.89
2018-08-28T22:34:07.338Z,19.95
2018-08-28T22:36:36.341Z,19.88
2018-08-28T22:39:06.121Z,20.00
2018-08-28T22:41:35.397Z,19.64
2018-08-28T22:44:04.470Z,19.50
2018-08-28T22:46:33.422Z,19.34
2018-08-28T22:49:02.590Z,18.21
2018-08-28T22:51:31.501Z,17.86
2018-08-28T22:54:00.446Z,18.29
2018-08-28T22:56:29.359Z,18.75
2018-08-28T22:58:58.331Z,19.08
2018-08-28T23:01:27.345Z,19.16
2018-08-28T23:03:56.285Z,19.39
2018-08-28T23:06:25.261Z,19.14
2018-08-28T23:08:54.246Z,19.18
2018-08-28T23:11:23.262Z,18.70
2018-08-28T23:13:52.262Z,18.60
2018-08-28T23:16:21.231Z,18.04
2018-08-28T23:18:50.226Z,18.14
2018-08-28T23:21:19.159Z,18.64
2018-08-28T23:23:48.285Z,18.75
2018-08-28T23:26:17.226Z,18.76
2018-08-28T23:28:46.159Z,18.47
2018-08-28T23:31:15.115Z,18.74
2018-08-28T23:33:44.126Z,18.42
2018-08-28T23:36:13.103Z,18.74
2018-08-28T23:38:42.045Z,18.56
2018-08-28T23:41:11.044Z,18.93
2018-08-28T23:43:39.989Z,18.52
2018-08-28T23:46:20.253Z,18.25
2018-08-28T23:48:49.523Z,18.43
2018-08-28T23:51:18.496Z,17.61
2018-08-28T23:53:47.400Z,17.36
2018-08-28T23:56:16.370Z,17.73
2018-08-28T23:58:45.331Z,18.00
